Pierson Station, Illinois
Current Conditions -  °F | °C
As of 3:54 PM on Thursday 27 Nov 2014 (Local Time) from KDEC Reporting Station
Overcast Overcast  
Wind Chill: 11°   Ceiling: 1900
Heat Index: 23°   Visibility: 10mi
Dew Point: 16°   Wind: 14mph
Humidity: 74%   Direction: 290°WNW
Pressure: 30.44"   Gusts: 20mph
Location:  39.8007°N, 88.5678°W
Report Text: KDEC 272154Z AUTO 29012G17KT 10SM OVC019 M05/M09 A3044 RMK AO2 SLP319 T10501089 TSNO
Loading
Personal Weather Stations






























Interactive Weather Map New forecast layout! Learn more

10-Day Weather Forecast

Advertisements
Track Severe Weather on mobile